createdAt,value
2018-12-18T00:00:20.321Z,28.90
2018-12-18T00:02:47.870Z,28.90
2018-12-18T00:05:20.902Z,28.90
2018-12-18T00:07:48.342Z,29.00
2018-12-18T00:10:15.891Z,29.10
2018-12-18T00:12:43.442Z,29.10
2018-12-18T00:15:10.905Z,29.10
2018-12-18T00:17:38.354Z,29.40
2018-12-18T00:20:05.835Z,29.20
2018-12-18T00:22:33.294Z,29.40
2018-12-18T00:25:00.807Z,29.30
2018-12-18T00:27:28.382Z,29.30
2018-12-18T00:29:55.827Z,29.30
2018-12-18T00:32:23.279Z,29.40
2018-12-18T00:34:50.758Z,29.50
2018-12-18T00:37:18.211Z,29.50
2018-12-18T00:39:45.679Z,29.60
2018-12-18T00:42:13.207Z,29.60
2018-12-18T00:44:40.668Z,29.70
2018-12-18T00:47:08.124Z,29.60
2018-12-18T00:49:35.579Z,29.70
2018-12-18T00:52:03.210Z,29.60
2018-12-18T00:54:30.632Z,29.70
2018-12-18T00:56:58.173Z,29.80
2018-12-18T00:59:25.623Z,29.80
2018-12-18T01:02:01.697Z,29.80
2018-12-18T01:04:29.138Z,29.90
2018-12-18T01:06:56.618Z,29.90
2018-12-18T01:09:24.214Z,30.00
2018-12-18T01:11:51.685Z,30.00
2018-12-18T01:14:19.571Z,30.00
2018-12-18T01:16:47.091Z,30.00
2018-12-18T01:19:14.594Z,30.00
2018-12-18T01:21:42.170Z,30.10
2018-12-18T01:24:09.643Z,30.10
2018-12-18T01:26:37.174Z,30.20
2018-12-18T01:29:04.755Z,30.20
2018-12-18T01:31:32.205Z,30.20
2018-12-18T01:33:59.652Z,30.30
2018-12-18T01:36:27.116Z,30.30
2018-12-18T01:38:54.660Z,30.40
2018-12-18T01:41:22.115Z,30.40
2018-12-18T01:43:49.692Z,30.40
2018-12-18T01:46:17.147Z,30.50
2018-12-18T01:48:45.241Z,30.50
2018-12-18T01:51:12.698Z,30.60
2018-12-18T01:53:40.271Z,30.70
2018-12-18T01:56:07.795Z,30.80
2018-12-18T01:58:35.345Z,30.70
2018-12-18T02:01:02.807Z,30.70
2018-12-18T02:03:30.343Z,30.80
2018-12-18T02:05:57.809Z,30.90
2018-12-18T02:08:25.405Z,30.90
2018-12-18T02:10:52.847Z,31.00
2018-12-18T02:13:20.326Z,31.00
2018-12-18T02:15:47.790Z,31.10
2018-12-18T02:18:15.371Z,31.10
2018-12-18T02:20:42.811Z,31.20
2018-12-18T02:23:10.346Z,31.20
2018-12-18T02:25:37.792Z,31.20
2018-12-18T02:28:05.259Z,31.30
2018-12-18T02:30:33.327Z,31.30
2018-12-18T02:33:00.890Z,31.30
2018-12-18T02:35:28.440Z,31.40
2018-12-18T02:37:55.878Z,31.40
2018-12-18T02:40:23.332Z,31.50
2018-12-18T02:42:50.814Z,31.50
2018-12-18T02:45:18.312Z,31.60
2018-12-18T02:47:45.823Z,31.60
2018-12-18T02:50:13.388Z,31.70
2018-12-18T02:52:40.863Z,31.80
2018-12-18T02:55:08.409Z,31.90
2018-12-18T02:57:35.955Z,31.90
2018-12-18T03:00:04.627Z,32.00
2018-12-18T03:02:32.103Z,32.00
2018-12-18T03:04:59.637Z,32.00
2018-12-18T03:07:27.114Z,32.00
2018-12-18T03:09:54.598Z,32.00
2018-12-18T03:12:22.136Z,32.10
2018-12-18T03:14:49.587Z,32.10
2018-12-18T03:17:17.051Z,32.20
2018-12-18T03:19:44.492Z,32.30
2018-12-18T03:22:11.974Z,32.30
2018-12-18T03:24:39.562Z,32.30
2018-12-18T03:27:07.093Z,32.40
2018-12-18T03:29:34.555Z,32.50
2018-12-18T03:32:04.028Z,32.50
2018-12-18T03:34:31.567Z,33.10
2018-12-18T03:36:59.092Z,32.60
2018-12-18T03:39:26.611Z,32.70
2018-12-18T03:41:54.104Z,32.70
2018-12-18T03:44:21.635Z,32.70
2018-12-18T03:46:49.607Z,32.70
2018-12-18T03:49:17.073Z,32.70
2018-12-18T03:51:44.628Z,32.70
2018-12-18T03:54:12.075Z,32.80
2018-12-18T03:56:39.543Z,32.80
2018-12-18T03:59:06.991Z,32.80
2018-12-18T04:01:34.560Z,32.90
2018-12-18T04:04:02.113Z,32.90
2018-12-18T04:06:29.583Z,33.00
2018-12-18T04:08:57.135Z,33.00
2018-12-18T04:11:24.612Z,33.00
2018-12-18T04:13:52.053Z,33.10
2018-12-18T04:16:19.499Z,33.10
2018-12-18T04:18:47.013Z,33.10
2018-12-18T04:21:14.454Z,33.20
2018-12-18T04:23:41.923Z,32.60
2018-12-18T04:26:09.384Z,33.40
2018-12-18T04:28:36.896Z,33.40
2018-12-18T04:31:04.352Z,33.30
2018-12-18T04:33:31.823Z,33.30
2018-12-18T04:35:59.300Z,33.40
2018-12-18T04:38:26.831Z,33.40
2018-12-18T04:40:54.287Z,33.40
2018-12-18T04:43:21.943Z,33.40
2018-12-18T04:45:49.423Z,33.40
2018-12-18T04:48:16.862Z,33.50
2018-12-18T04:50:44.303Z,33.50
2018-12-18T04:53:11.781Z,33.50
2018-12-18T04:55:39.211Z,33.50
2018-12-18T04:58:06.712Z,33.50
2018-12-18T05:00:34.246Z,33.60
2018-12-18T05:03:01.720Z,33.60
2018-12-18T05:05:29.170Z,33.70
2018-12-18T05:07:56.625Z,33.70
2018-12-18T05:10:24.067Z,33.70
2018-12-18T05:12:51.657Z,33.80
2018-12-18T05:15:19.199Z,33.80
2018-12-18T05:17:46.723Z,33.80
2018-12-18T05:20:14.159Z,33.80
2018-12-18T05:22:41.599Z,33.90
2018-12-18T05:25:09.066Z,34.00
2018-12-18T05:27:36.587Z,33.70
2018-12-18T05:30:06.671Z,34.00
2018-12-18T05:32:34.099Z,33.90
2018-12-18T05:35:01.551Z,34.00
2018-12-18T05:37:29.156Z,34.00
2018-12-18T05:39:56.716Z,34.10
2018-12-18T05:42:24.286Z,34.10
2018-12-18T05:44:51.778Z,34.20
2018-12-18T05:47:19.314Z,34.20
2018-12-18T05:49:46.779Z,34.10
2018-12-18T05:52:14.222Z,34.20
2018-12-18T05:54:41.760Z,34.30
2018-12-18T05:57:09.195Z,34.30
2018-12-18T05:59:36.703Z,34.30
2018-12-18T06:02:04.364Z,34.50
2018-12-18T06:04:31.936Z,34.50
2018-12-18T06:06:59.382Z,34.50
2018-12-18T06:09:26.827Z,34.50
2018-12-18T06:11:54.303Z,34.50
2018-12-18T06:14:21.759Z,34.50
2018-12-18T06:16:49.202Z,34.50
2018-12-18T06:19:16.711Z,34.50
2018-12-18T06:21:44.150Z,34.50
2018-12-18T06:24:11.687Z,34.50
2018-12-18T06:26:39.158Z,34.60
2018-12-18T06:29:06.627Z,34.60
2018-12-18T06:31:34.169Z,34.70
2018-12-18T06:34:01.692Z,34.60
2018-12-18T06:36:29.157Z,34.70
2018-12-18T06:38:56.596Z,34.80
2018-12-18T06:41:24.118Z,34.80
2018-12-18T06:43:51.560Z,34.80
2018-12-18T06:46:19.300Z,34.80
2018-12-18T06:48:46.890Z,34.80
2018-12-18T06:51:14.335Z,34.80
2018-12-18T06:53:41.778Z,34.90
2018-12-18T06:56:09.245Z,34.90
2018-12-18T06:58:36.885Z,34.90
2018-12-18T07:01:04.330Z,35.00
2018-12-18T07:03:31.782Z,35.00
2018-12-18T07:05:59.336Z,35.00
2018-12-18T07:08:26.955Z,35.10
2018-12-18T07:10:54.410Z,35.10
2018-12-18T07:13:21.859Z,35.10
2018-12-18T07:15:49.359Z,35.10
2018-12-18T07:18:16.894Z,35.10
2018-12-18T07:20:44.331Z,35.20
2018-12-18T07:23:11.814Z,35.20
2018-12-18T07:25:39.277Z,35.20
2018-12-18T07:28:06.706Z,35.30
2018-12-18T07:30:34.268Z,35.20
2018-12-18T07:33:01.736Z,35.20
2018-12-18T07:35:29.237Z,35.40
2018-12-18T07:37:56.766Z,35.40
2018-12-18T07:40:24.218Z,35.40
2018-12-18T07:42:51.732Z,35.40
2018-12-18T07:45:19.265Z,35.50
2018-12-18T07:47:46.779Z,35.50
2018-12-18T07:50:14.247Z,35.60
2018-12-18T07:52:42.087Z,35.60
2018-12-18T07:55:09.577Z,35.60
2018-12-18T07:57:37.138Z,35.60
2018-12-18T08:00:05.103Z,35.60
2018-12-18T08:02:32.880Z,35.70
2018-12-18T08:05:00.340Z,35.60
2018-12-18T08:07:27.800Z,35.60
2018-12-18T08:09:55.441Z,36.20
2018-12-18T08:12:24.816Z,35.70
2018-12-18T08:14:52.295Z,35.80
2018-12-18T08:17:19.755Z,35.70
2018-12-18T08:19:47.203Z,35.80
2018-12-18T08:22:14.945Z,35.80
2018-12-18T08:24:42.462Z,35.90
2018-12-18T08:27:09.994Z,35.90
2018-12-18T08:29:37.435Z,36.00
2018-12-18T08:32:04.929Z,36.00
2018-12-18T08:34:32.379Z,36.00
2018-12-18T08:36:59.823Z,36.00
2018-12-18T08:39:27.272Z,36.10
2018-12-18T08:41:54.838Z,36.20
2018-12-18T08:44:22.369Z,36.20
2018-12-18T08:46:49.859Z,36.20
2018-12-18T08:49:17.294Z,36.20
2018-12-18T08:51:44.771Z,36.20
2018-12-18T08:54:12.250Z,36.30
2018-12-18T08:56:39.780Z,36.30
2018-12-18T08:59:07.252Z,36.40
2018-12-18T09:01:34.719Z,36.40
2018-12-18T09:04:02.217Z,36.40
2018-12-18T09:06:29.715Z,36.40
2018-12-18T09:08:58.702Z,36.40
2018-12-18T09:11:26.374Z,36.50
2018-12-18T09:13:53.852Z,36.40
2018-12-18T09:16:27.097Z,36.50
2018-12-18T09:18:54.777Z,36.50
2018-12-18T09:21:22.423Z,36.50
2018-12-18T09:23:49.903Z,36.50
2018-12-18T09:26:17.377Z,36.50
2018-12-18T09:28:44.818Z,36.60
2018-12-18T09:31:12.307Z,36.60
2018-12-18T09:33:39.876Z,36.60
2018-12-18T09:36:07.309Z,36.50
2018-12-18T09:38:40.631Z,36.50
2018-12-18T09:41:13.759Z,36.50
2018-12-18T09:43:46.953Z,36.50
2018-12-18T09:46:14.450Z,36.60
2018-12-18T09:48:41.987Z,36.60
2018-12-18T09:51:09.517Z,36.60
2018-12-18T09:53:36.951Z,36.60
2018-12-18T09:56:04.394Z,36.70
2018-12-18T09:58:31.968Z,36.70
2018-12-18T10:00:59.448Z,37.40
2018-12-18T10:03:33.301Z,36.80
2018-12-18T10:05:56.634Z,36.80
2018-12-18T10:08:24.232Z,36.80
2018-12-18T10:10:51.722Z,36.80
2018-12-18T10:13:19.263Z,36.90
2018-12-18T10:15:46.704Z,36.90
2018-12-18T10:18:14.179Z,37.00
2018-12-18T10:20:41.704Z,37.00
2018-12-18T10:23:09.157Z,36.90
2018-12-18T10:25:36.648Z,36.90
2018-12-18T10:28:04.181Z,36.90
2018-12-18T10:30:31.640Z,37.00
2018-12-18T10:32:59.117Z,37.00
2018-12-18T10:35:26.696Z,37.10
2018-12-18T10:37:54.155Z,37.10
2018-12-18T10:40:21.663Z,37.20
2018-12-18T10:42:49.119Z,37.20
2018-12-18T10:45:16.803Z,37.20
2018-12-18T10:47:44.259Z,37.20
2018-12-18T10:50:11.827Z,37.20
2018-12-18T10:52:39.367Z,37.30
2018-12-18T10:55:06.824Z,37.30
2018-12-18T10:57:34.416Z,37.30
2018-12-18T11:00:01.961Z,37.30
2018-12-18T11:02:29.504Z,37.70
2018-12-18T11:04:56.978Z,37.30
2018-12-18T11:07:24.541Z,37.30
2018-12-18T11:09:52.183Z,37.90
2018-12-18T11:12:21.528Z,37.40
2018-12-18T11:14:49.047Z,37.50
2018-12-18T11:17:16.641Z,37.60
2018-12-18T11:19:44.127Z,37.70
2018-12-18T11:22:11.705Z,37.60
2018-12-18T11:24:39.277Z,37.70
2018-12-18T11:27:06.762Z,37.60
2018-12-18T11:29:34.331Z,37.60
2018-12-18T11:32:01.785Z,37.50
2018-12-18T11:34:29.247Z,37.50
2018-12-18T11:36:56.766Z,37.00
2018-12-18T11:39:24.303Z,37.50
2018-12-18T11:41:51.802Z,37.30
2018-12-18T11:44:19.359Z,37.20
2018-12-18T11:46:46.795Z,37.10
2018-12-18T11:49:14.267Z,37.10
2018-12-18T11:51:41.859Z,37.10
2018-12-18T11:54:09.311Z,37.10
2018-12-18T11:56:36.751Z,37.10
2018-12-18T11:59:04.326Z,37.30
2018-12-18T12:01:31.856Z,37.20
2018-12-18T12:03:59.321Z,37.20
2018-12-18T12:06:26.878Z,37.20
2018-12-18T12:08:54.426Z,37.20
2018-12-18T12:11:21.910Z,37.00
2018-12-18T12:13:49.386Z,35.80
2018-12-18T12:16:16.903Z,34.60
2018-12-18T12:18:44.374Z,34.20
2018-12-18T12:21:11.842Z,34.50
2018-12-18T12:23:39.295Z,34.20
2018-12-18T12:26:12.448Z,34.00
2018-12-18T12:28:39.950Z,34.10
2018-12-18T12:31:07.483Z,34.20
2018-12-18T12:33:34.939Z,34.40
2018-12-18T12:36:02.410Z,34.60
2018-12-18T12:38:29.935Z,34.80
2018-12-18T12:40:57.371Z,35.00
2018-12-18T12:43:24.870Z,35.30
2018-12-18T12:45:52.339Z,35.60
2018-12-18T12:48:19.784Z,35.80
2018-12-18T12:50:47.240Z,36.10
2018-12-18T12:53:14.707Z,36.20
2018-12-18T12:55:42.159Z,36.10
2018-12-18T12:58:09.694Z,36.30
2018-12-18T13:00:37.141Z,36.40
2018-12-18T13:03:04.608Z,36.50
2018-12-18T13:05:32.127Z,36.70
2018-12-18T13:07:59.593Z,37.00
2018-12-18T13:10:27.051Z,37.10
2018-12-18T13:12:54.516Z,37.50
2018-12-18T13:15:22.037Z,37.50
2018-12-18T13:17:49.493Z,37.90
2018-12-18T13:20:17.077Z,37.80
2018-12-18T13:22:44.661Z,37.90
2018-12-18T13:25:12.108Z,38.00
2018-12-18T13:27:39.563Z,38.30
2018-12-18T13:30:07.049Z,38.50
2018-12-18T13:32:34.487Z,38.60
2018-12-18T13:35:02.124Z,38.50
2018-12-18T13:37:29.640Z,38.60
2018-12-18T13:39:57.107Z,38.50
2018-12-18T13:42:24.584Z,37.70
2018-12-18T13:44:52.196Z,36.80
2018-12-18T13:47:19.756Z,36.90
2018-12-18T13:49:47.362Z,36.50
2018-12-18T13:52:14.799Z,36.70
2018-12-18T13:54:42.372Z,36.50
2018-12-18T13:57:09.903Z,36.60
2018-12-18T13:59:37.395Z,36.80
2018-12-18T14:02:04.983Z,36.90
2018-12-18T14:04:32.431Z,37.20
2018-12-18T14:06:59.953Z,37.30
2018-12-18T14:09:27.398Z,37.50
2018-12-18T14:11:54.853Z,37.50
2018-12-18T14:14:22.307Z,37.80
2018-12-18T14:16:49.854Z,38.00
2018-12-18T14:19:17.346Z,37.70
2018-12-18T14:21:44.921Z,37.70
2018-12-18T14:24:12.367Z,37.70
2018-12-18T14:26:40.025Z,38.00
2018-12-18T14:29:07.452Z,38.20
2018-12-18T14:31:34.950Z,38.50
2018-12-18T14:34:02.394Z,38.40
2018-12-18T14:36:29.847Z,38.60
2018-12-18T14:38:57.339Z,38.60
2018-12-18T14:41:24.775Z,38.60
2018-12-18T14:43:52.365Z,39.00
2018-12-18T14:46:19.906Z,39.40
2018-12-18T14:48:47.410Z,39.30
2018-12-18T14:51:14.883Z,39.50
2018-12-18T14:53:42.383Z,39.70
2018-12-18T14:56:09.827Z,39.70
2018-12-18T14:58:37.344Z,39.40
2018-12-18T15:01:04.866Z,40.00
2018-12-18T15:03:32.311Z,40.00
2018-12-18T15:05:59.863Z,40.30
2018-12-18T15:08:27.324Z,40.40
2018-12-18T15:10:54.760Z,40.60
2018-12-18T15:13:22.228Z,40.80
2018-12-18T15:15:49.687Z,41.40
2018-12-18T15:18:17.224Z,41.20
2018-12-18T15:20:44.710Z,41.40
2018-12-18T15:23:12.173Z,41.10
2018-12-18T15:25:39.646Z,41.50
2018-12-18T15:28:07.183Z,41.60
2018-12-18T15:30:34.770Z,42.10
2018-12-18T15:33:02.232Z,41.70
2018-12-18T15:35:30.139Z,41.70
2018-12-18T15:37:57.675Z,42.10
2018-12-18T15:40:25.143Z,42.20
2018-12-18T15:42:52.670Z,42.30
2018-12-18T15:45:20.111Z,42.60
2018-12-18T15:47:47.553Z,42.70
2018-12-18T15:50:15.019Z,42.90
2018-12-18T15:52:42.491Z,42.90
2018-12-18T15:55:09.947Z,42.90
2018-12-18T15:57:37.510Z,43.10
2018-12-18T16:00:05.795Z,43.20
2018-12-18T16:02:33.332Z,43.10
2018-12-18T16:05:00.888Z,44.10
2018-12-18T16:07:28.379Z,43.60
2018-12-18T16:09:56.348Z,43.60
2018-12-18T16:12:23.853Z,43.90
2018-12-18T16:14:51.279Z,43.90
2018-12-18T16:17:18.887Z,44.10
2018-12-18T16:19:46.351Z,44.10
2018-12-18T16:22:13.904Z,44.50
2018-12-18T16:24:41.367Z,44.40
2018-12-18T16:27:08.871Z,44.30
2018-12-18T16:29:36.411Z,44.50
2018-12-18T16:32:03.971Z,44.50
2018-12-18T16:34:31.404Z,44.70
2018-12-18T16:36:58.843Z,44.70
2018-12-18T16:39:26.349Z,45.00
2018-12-18T16:41:53.780Z,45.10
2018-12-18T16:44:21.297Z,46.00
2018-12-18T16:46:48.802Z,45.40
2018-12-18T16:49:16.387Z,45.20
2018-12-18T16:51:44.146Z,45.60
2018-12-18T16:54:11.907Z,45.50
2018-12-18T16:56:39.655Z,45.60
2018-12-18T16:59:07.306Z,45.30
2018-12-18T17:01:34.748Z,45.70
2018-12-18T17:04:02.243Z,45.60
2018-12-18T17:06:29.711Z,45.90
2018-12-18T17:08:57.306Z,46.30
2018-12-18T17:11:24.815Z,46.40
2018-12-18T17:13:52.427Z,46.20
2018-12-18T17:16:19.936Z,46.30
2018-12-18T17:18:47.414Z,46.20
2018-12-18T17:21:14.974Z,46.50
2018-12-18T17:23:42.535Z,46.50
2018-12-18T17:26:09.964Z,46.70
2018-12-18T17:28:37.514Z,46.70
2018-12-18T17:31:05.077Z,46.80
2018-12-18T17:33:32.519Z,47.00
2018-12-18T17:36:00.590Z,47.00
2018-12-18T17:38:28.052Z,47.20
2018-12-18T17:40:55.509Z,47.10
2018-12-18T17:43:23.415Z,47.30
2018-12-18T17:45:50.903Z,47.10
2018-12-18T17:48:18.526Z,47.20
2018-12-18T17:50:46.081Z,47.20
2018-12-18T17:53:13.549Z,47.10
2018-12-18T17:55:41.010Z,47.10
2018-12-18T17:58:08.634Z,47.10
2018-12-18T18:00:36.104Z,47.10
2018-12-18T18:03:03.584Z,47.20
2018-12-18T18:05:31.151Z,47.00
2018-12-18T18:07:58.611Z,47.10
2018-12-18T18:10:26.054Z,47.00
2018-12-18T18:12:54.073Z,47.80
2018-12-18T18:15:21.947Z,46.90
2018-12-18T18:17:49.412Z,47.30
2018-12-18T18:20:16.863Z,47.00
2018-12-18T18:22:44.647Z,47.10
2018-12-18T18:25:12.110Z,48.00
2018-12-18T18:27:39.694Z,47.10
2018-12-18T18:30:07.206Z,47.50
2018-12-18T18:32:34.685Z,47.40
2018-12-18T18:35:02.145Z,47.60
2018-12-18T18:37:29.696Z,47.50
2018-12-18T18:39:57.194Z,47.70
2018-12-18T18:42:24.715Z,47.90
2018-12-18T18:44:52.281Z,48.00
2018-12-18T18:47:19.725Z,48.30
2018-12-18T18:49:47.190Z,48.80
2018-12-18T18:52:14.746Z,48.80
2018-12-18T18:54:42.316Z,48.50
2018-12-18T18:57:09.786Z,48.60
2018-12-18T18:59:37.243Z,48.60
2018-12-18T19:02:04.711Z,48.60
2018-12-18T19:04:32.169Z,48.60
2018-12-18T19:06:59.620Z,48.60
2018-12-18T19:09:27.068Z,48.90
2018-12-18T19:11:54.611Z,48.60
2018-12-18T19:14:22.066Z,48.40
2018-12-18T19:16:49.495Z,48.20
2018-12-18T19:19:16.987Z,48.40
2018-12-18T19:21:44.457Z,48.90
2018-12-18T19:24:11.891Z,48.70
2018-12-18T19:26:39.402Z,48.60
2018-12-18T19:29:06.863Z,49.20
2018-12-18T19:31:34.367Z,49.30
2018-12-18T19:34:01.854Z,49.20
2018-12-18T19:36:29.322Z,49.60
2018-12-18T19:38:56.943Z,49.00
2018-12-18T19:41:24.392Z,49.50
2018-12-18T19:43:51.865Z,49.30
2018-12-18T19:46:19.431Z,49.80
2018-12-18T19:48:46.983Z,49.60
2018-12-18T19:51:14.457Z,49.50
2018-12-18T19:53:41.933Z,49.40
2018-12-18T19:56:09.435Z,49.40
2018-12-18T19:58:36.896Z,49.40
2018-12-18T20:01:04.344Z,49.40
2018-12-18T20:03:31.795Z,49.40
2018-12-18T20:05:59.356Z,49.30
2018-12-18T20:08:26.794Z,49.40
2018-12-18T20:10:54.306Z,49.40
2018-12-18T20:13:22.822Z,49.40
2018-12-18T20:15:50.275Z,49.40
2018-12-18T20:18:17.731Z,49.40
2018-12-18T20:20:45.182Z,49.30
2018-12-18T20:23:12.737Z,49.30
2018-12-18T20:25:40.184Z,49.30
2018-12-18T20:28:07.636Z,49.30
2018-12-18T20:30:35.122Z,49.30
2018-12-18T20:33:02.571Z,49.20
2018-12-18T20:35:30.215Z,49.90
2018-12-18T20:37:57.771Z,49.20
2018-12-18T20:40:26.235Z,49.10
2018-12-18T20:42:53.740Z,49.20
2018-12-18T20:45:21.290Z,49.30
2018-12-18T20:47:48.737Z,49.30
2018-12-18T20:50:16.353Z,49.20
2018-12-18T20:52:43.789Z,49.20
2018-12-18T20:55:11.250Z,49.20
2018-12-18T20:57:38.763Z,49.30
2018-12-18T21:00:08.482Z,49.30
2018-12-18T21:02:35.933Z,49.30
2018-12-18T21:05:04.274Z,49.30
2018-12-18T21:07:31.771Z,49.30
2018-12-18T21:09:59.220Z,49.40
2018-12-18T21:12:26.691Z,49.30
2018-12-18T21:15:00.523Z,49.40
2018-12-18T21:17:23.856Z,49.50
2018-12-18T21:19:51.332Z,49.50
2018-12-18T21:22:18.876Z,49.50
2018-12-18T21:24:46.399Z,49.60
2018-12-18T21:27:13.882Z,49.60
2018-12-18T21:29:41.318Z,49.70
2018-12-18T21:32:08.775Z,49.70
2018-12-18T21:34:36.348Z,49.70
2018-12-18T21:37:03.807Z,49.70
2018-12-18T21:39:31.260Z,49.80
2018-12-18T21:41:58.742Z,49.70
2018-12-18T21:44:26.180Z,49.70
2018-12-18T21:46:53.636Z,49.70
2018-12-18T21:49:21.213Z,49.70
2018-12-18T21:51:48.779Z,49.80
2018-12-18T21:54:16.335Z,49.70
2018-12-18T21:56:43.782Z,49.80
2018-12-18T21:59:11.247Z,49.70
2018-12-18T22:01:38.735Z,49.60
2018-12-18T22:04:06.246Z,49.70
2018-12-18T22:06:33.700Z,49.50
2018-12-18T22:09:01.139Z,49.40
2018-12-18T22:11:28.696Z,49.30
2018-12-18T22:13:56.249Z,49.20
2018-12-18T22:16:23.752Z,49.10
2018-12-18T22:18:51.300Z,49.00
2018-12-18T22:21:18.758Z,48.80
2018-12-18T22:23:46.210Z,48.60
2018-12-18T22:26:13.857Z,48.60
2018-12-18T22:28:41.307Z,48.50
2018-12-18T22:31:08.746Z,48.40
2018-12-18T22:33:36.215Z,48.30
2018-12-18T22:36:03.671Z,48.20
2018-12-18T22:38:31.144Z,47.90
2018-12-18T22:40:58.585Z,47.80
2018-12-18T22:43:26.097Z,47.60
2018-12-18T22:45:53.612Z,47.50
2018-12-18T22:48:21.071Z,47.30
2018-12-18T22:50:48.626Z,47.20
2018-12-18T22:53:16.081Z,47.00
2018-12-18T22:55:45.051Z,46.80
2018-12-18T22:58:12.737Z,46.60
2018-12-18T23:00:46.923Z,46.50
2018-12-18T23:03:14.445Z,46.30
2018-12-18T23:05:41.911Z,46.20
2018-12-18T23:08:09.381Z,46.00
2018-12-18T23:10:36.986Z,45.80
2018-12-18T23:13:04.476Z,45.60
2018-12-18T23:15:31.934Z,45.50
2018-12-18T23:17:59.398Z,45.30
2018-12-18T23:20:27.665Z,45.10
2018-12-18T23:22:55.131Z,44.80
2018-12-18T23:25:22.625Z,44.60
2018-12-18T23:27:50.167Z,44.50
2018-12-18T23:30:17.615Z,44.90
2018-12-18T23:32:45.074Z,44.10
2018-12-18T23:35:12.511Z,44.00
2018-12-18T23:37:39.995Z,43.60
2018-12-18T23:40:07.629Z,43.50
2018-12-18T23:42:35.098Z,43.30
2018-12-18T23:45:02.523Z,43.10
2018-12-18T23:47:29.979Z,42.90
2018-12-18T23:49:57.427Z,42.60
2018-12-18T23:52:24.971Z,42.50
2018-12-18T23:54:52.480Z,42.30
2018-12-18T23:57:19.955Z,42.10
2018-12-18T23:59:47.391Z,41.80
